Time;durP1;ratioP1;P1;durP2;ratioP2;P2;SDS_P1;SDS_P2;PMS_P1;PMS_P2;Temp;Humidity;BMP_temperature;BMP_pressure;BME280_temperature;BME280_humidity;BME280_pressure;Samples;Min_cycle;Max_cycle;Signal;HPM_P1;HPM_P2
2022/12/09 00:00:22;;;;;;;;;;;5.50;86.50;;;;;;5071237;28;19966;-39
2022/12/09 00:02:48;;;;;;;;;;;5.50;86.50;;;;;;5071129;28;19908;-34
2022/12/09 00:05:13;;;;;;;;;;;5.50;86.50;;;;;;5070784;28;19959;-34
2022/12/09 00:07:39;;;;;;;;;;;5.50;86.40;;;;;;5072282;28;19908;-34
2022/12/09 00:10:05;;;;;;;;;;;5.50;86.40;;;;;;5075135;28;20410;-34
2022/12/09 00:12:30;;;;;;;;;;;5.50;86.30;;;;;;5074975;28;19908;-34
2022/12/09 00:14:56;;;;;;;;;;;5.50;86.30;;;;;;5075008;28;19914;-32
2022/12/09 00:17:21;;;;;;;;;;;5.60;86.30;;;;;;5074826;28;20260;-34
2022/12/09 00:19:46;;;;;;;;;;;5.50;86.30;;;;;;5074675;28;19920;-34
2022/12/09 00:22:12;;;;;;;;;;;5.60;86.30;;;;;;5074531;28;20399;-34
2022/12/09 00:24:37;;;;;;;;;;;5.60;86.30;;;;;;5074060;28;20013;-34
2022/12/09 00:27:03;;;;;;;;;;;5.60;86.30;;;;;;5074030;28;20207;-33
2022/12/09 00:29:28;;;;;;;;;;;5.60;86.20;;;;;;5074262;28;19956;-34
2022/12/09 00:31:54;;;;;;;;;;;5.60;86.20;;;;;;5074362;28;19974;-33
2022/12/09 00:34:19;;;;;;;;;;;5.60;86.10;;;;;;5074058;28;19961;-34
2022/12/09 00:36:45;;;;;;;;;;;5.50;86.10;;;;;;5074320;28;20263;-33
2022/12/09 00:39:11;;;;;;;;;;;5.60;86.10;;;;;;5074051;28;19908;-34
2022/12/09 00:41:36;;;;;;;;;;;5.50;86.10;;;;;;5074366;28;19970;-34
2022/12/09 00:44:02;;;;;;;;;;;5.60;86.00;;;;;;5073996;28;19969;-36
2022/12/09 00:46:27;;;;;;;;;;;5.60;86.00;;;;;;5055816;28;19915;-33
2022/12/09 00:48:53;;;;;;;;;;;5.60;85.90;;;;;;5073726;28;19994;-34
2022/12/09 00:51:20;;;;;;;;;;;5.60;85.90;;;;;;5073956;28;19909;-34
2022/12/09 00:53:46;;;;;;;;;;;5.60;85.90;;;;;;5073708;28;20003;-33
2022/12/09 00:56:11;;;;;;;;;;;5.60;85.90;;;;;;5074008;28;19914;-35
2022/12/09 00:58:37;;;;;;;;;;;5.60;85.90;;;;;;5073935;28;19912;-35
2022/12/09 01:01:02;;;;;;;;;;;5.60;85.90;;;;;;5073663;28;20376;-34
2022/12/09 01:03:28;;;;;;;;;;;5.60;85.80;;;;;;5073766;28;19965;-35
2022/12/09 01:05:54;;;;;;;;;;;5.60;85.80;;;;;;5073253;28;19965;-34
2022/12/09 01:08:19;;;;;;;;;;;5.60;85.80;;;;;;5073719;28;19908;-34
2022/12/09 01:10:45;;;;;;;;;;;5.60;85.80;;;;;;5073223;28;19912;-34
2022/12/09 01:13:12;;;;;;;;;;;5.60;85.80;;;;;;5073586;28;19908;-34
2022/12/09 01:15:37;;;;;;;;;;;5.60;85.80;;;;;;5073454;28;19931;-36
2022/12/09 01:18:03;;;;;;;;;;;5.60;85.80;;;;;;5072828;28;19920;-33
2022/12/09 01:20:28;;;;;;;;;;;5.60;85.80;;;;;;5072130;28;19915;-34
2022/12/09 01:22:54;;;;;;;;;;;5.60;85.70;;;;;;5073052;28;19909;-34
2022/12/09 01:25:19;;;;;;;;;;;5.60;85.80;;;;;;5073323;28;20261;-34
2022/12/09 01:27:45;;;;;;;;;;;5.60;85.80;;;;;;5073459;28;19920;-34
2022/12/09 01:30:11;;;;;;;;;;;5.60;85.80;;;;;;5073007;28;20411;-35
2022/12/09 01:32:36;;;;;;;;;;;5.60;85.80;;;;;;5072947;28;19919;-33
2022/12/09 01:35:03;;;;;;;;;;;5.50;85.70;;;;;;5073120;28;19912;-35
2022/12/09 01:37:30;;;;;;;;;;;5.60;85.80;;;;;;5072930;28;20407;-34
2022/12/09 01:39:56;;;;;;;;;;;5.60;85.80;;;;;;5072598;28;20367;-33
2022/12/09 01:42:22;;;;;;;;;;;5.60;85.80;;;;;;5072962;28;19916;-34
2022/12/09 01:45:06;;;;;;;;;;;5.50;85.60;;;;;;5072812;28;20019;-33
2022/12/09 01:47:32;;;;;;;;;;;5.60;85.70;;;;;;5072444;28;19934;-35
2022/12/09 01:49:57;;;;;;;;;;;5.60;85.70;;;;;;5072434;28;19909;-35
2022/12/09 01:52:23;;;;;;;;;;;5.60;85.60;;;;;;5072373;28;19912;-33
2022/12/09 01:54:50;;;;;;;;;;;5.60;85.70;;;;;;5072328;28;20319;-34
2022/12/09 01:57:15;;;;;;;;;;;5.60;85.70;;;;;;5072310;28;19908;-34
2022/12/09 01:59:42;;;;;;;;;;;5.60;85.60;;;;;;5072721;28;20299;-36
2022/12/09 02:02:08;;;;;;;;;;;5.60;85.60;;;;;;5072587;28;20378;-34
2022/12/09 02:04:37;;;;;;;;;;;5.60;85.60;;;;;;5072479;28;19912;-34
2022/12/09 02:07:04;;;;;;;;;;;5.60;85.60;;;;;;5072313;28;19912;-34
2022/12/09 02:09:30;;;;;;;;;;;5.60;85.60;;;;;;5072405;28;19908;-35
2022/12/09 02:11:58;;;;;;;;;;;5.60;85.50;;;;;;5072084;28;19914;-34
2022/12/09 02:14:50;;;;;;;;;;;5.60;85.50;;;;;;5072664;28;20318;-34
2022/12/09 02:17:25;;;;;;;;;;;5.60;85.50;;;;;;5068017;28;20485;-34
2022/12/09 02:20:07;;;;;;;;;;;5.60;85.40;;;;;;5071902;28;19922;-32
2022/12/09 02:22:38;;;;;;;;;;;5.60;86.10;;;;;;5071857;28;20367;-35
2022/12/09 02:25:23;;;;;;;;;;;5.60;85.50;;;;;;5072023;28;19923;-34
2022/12/09 02:27:55;;;;;;;;;;;5.60;85.40;;;;;;5071207;28;19997;-44
2022/12/09 02:30:28;;;;;;;;;;;5.60;85.50;;;;;;5071705;28;19915;-34
2022/12/09 02:33:08;;;;;;;;;;;5.60;85.40;;;;;;5053691;28;19948;-35
2022/12/09 02:35:34;;;;;;;;;;;5.50;85.40;;;;;;5071970;28;20300;-34
2022/12/09 02:38:05;;;;;;;;;;;5.50;85.40;;;;;;5071604;28;20011;-35
2022/12/09 02:40:52;;;;;;;;;;;5.40;85.40;;;;;;5053535;28;19908;-35
2022/12/09 02:43:21;;;;;;;;;;;5.40;85.50;;;;;;5071670;28;19943;-34
2022/12/09 02:45:47;;;;;;;;;;;5.30;85.60;;;;;;5071971;28;19956;-33
2022/12/09 02:48:14;;;;;;;;;;;5.20;85.70;;;;;;5071710;28;19909;-35
2022/12/09 02:50:41;;;;;;;;;;;5.20;85.80;;;;;;5071483;28;19954;-36
2022/12/09 02:53:08;;;;;;;;;;;5.10;85.90;;;;;;5071428;28;19977;-34
2022/12/09 02:55:34;;;;;;;;;;;5.10;85.90;;;;;;5071829;28;19913;-35
2022/12/09 02:58:00;;;;;;;;;;;5.00;85.90;;;;;;5071680;28;19995;-34
2022/12/09 03:00:26;;;;;;;;;;;5.00;86.00;;;;;;5071807;28;19931;-33
2022/12/09 03:02:54;;;;;;;;;;;5.00;86.00;;;;;;5071923;28;19915;-34
2022/12/09 03:05:29;;;;;;;;;;;5.00;86.10;;;;;;5071381;28;20338;-35
2022/12/09 03:08:13;;;;;;;;;;;4.90;86.00;;;;;;5071663;28;19908;-35
2022/12/09 03:10:57;;;;;;;;;;;4.90;86.00;;;;;;5071550;28;19908;-34
2022/12/09 03:13:34;;;;;;;;;;;4.90;86.10;;;;;;5071500;28;19912;-35
2022/12/09 03:16:07;;;;;;;;;;;4.90;86.10;;;;;;5053264;28;20098;-34
2022/12/09 03:18:34;;;;;;;;;;;4.90;86.00;;;;;;5071333;28;20370;-34
2022/12/09 03:21:01;;;;;;;;;;;4.90;86.00;;;;;;5071102;28;19909;-35
2022/12/09 03:23:28;;;;;;;;;;;4.90;86.00;;;;;;5071223;28;19955;-34
2022/12/09 03:25:54;;;;;;;;;;;4.90;85.90;;;;;;5053222;28;19920;-35
2022/12/09 03:28:25;;;;;;;;;;;5.00;85.90;;;;;;5071571;28;19916;-34
2022/12/09 03:30:52;;;;;;;;;;;5.00;85.90;;;;;;5071473;28;19908;-34
2022/12/09 03:33:19;;;;;;;;;;;5.00;85.80;;;;;;5071450;28;19908;-34
2022/12/09 03:35:48;;;;;;;;;;;4.90;85.70;;;;;;5071059;28;19958;-34
2022/12/09 03:38:15;;;;;;;;;;;4.90;85.70;;;;;;5071431;28;19908;-35
2022/12/09 03:40:41;;;;;;;;;;;5.00;85.80;;;;;;5071480;28;19940;-35
2022/12/09 03:43:12;;;;;;;;;;;4.90;85.70;;;;;;5073347;28;20360;-34
2022/12/09 03:45:38;;;;;;;;;;;5.00;85.70;;;;;;5075218;28;20272;-34
2022/12/09 03:48:04;;;;;;;;;;;5.00;85.60;;;;;;5075234;28;19909;-35
2022/12/09 03:50:32;;;;;;;;;;;5.00;85.60;;;;;;5074898;28;19908;-33
2022/12/09 03:53:11;;;;;;;;;;;5.00;85.50;;;;;;5074837;28;19908;-33
2022/12/09 03:55:58;;;;;;;;;;;5.00;85.50;;;;;;5075051;28;20368;-34
2022/12/09 03:58:23;;;;;;;;;;;5.00;85.50;;;;;;5075247;28;19971;-36
2022/12/09 04:00:49;;;;;;;;;;;5.00;85.40;;;;;;5074814;28;19936;-34
2022/12/09 04:03:16;;;;;;;;;;;5.00;85.40;;;;;;5075133;28;20136;-34
2022/12/09 04:05:41;;;;;;;;;;;5.00;85.40;;;;;;5074710;28;19912;-34
2022/12/09 04:08:07;;;;;;;;;;;5.00;85.40;;;;;;5074765;28;20011;-34
2022/12/09 04:10:33;;;;;;;;;;;5.00;85.40;;;;;;5074580;28;19912;-35
2022/12/09 04:12:58;;;;;;;;;;;4.90;85.30;;;;;;5074802;28;20003;-40
2022/12/09 04:15:24;;;;;;;;;;;4.90;85.40;;;;;;5056403;28;19908;-35
2022/12/09 04:17:49;;;;;;;;;;;4.90;85.40;;;;;;5074576;28;19994;-35
2022/12/09 04:20:15;;;;;;;;;;;4.90;85.40;;;;;;5074289;28;20216;-34
2022/12/09 04:22:40;;;;;;;;;;;4.80;85.40;;;;;;5074203;28;20387;-34
2022/12/09 04:25:06;;;;;;;;;;;4.80;85.50;;;;;;5074469;28;19912;-34
2022/12/09 04:27:31;;;;;;;;;;;4.70;85.60;;;;;;5074297;28;20413;-35
2022/12/09 04:29:57;;;;;;;;;;;4.60;85.60;;;;;;5074437;28;19961;-33
2022/12/09 04:32:22;;;;;;;;;;;4.60;85.70;;;;;;5074625;28;20332;-35
2022/12/09 04:34:48;;;;;;;;;;;4.60;85.80;;;;;;5074265;28;19912;-43
2022/12/09 04:37:14;;;;;;;;;;;4.60;85.90;;;;;;5074136;28;19908;-35
2022/12/09 04:39:40;;;;;;;;;;;4.50;85.80;;;;;;5074096;28;19915;-34
2022/12/09 04:42:06;;;;;;;;;;;4.60;85.90;;;;;;5074092;28;20363;-34
2022/12/09 04:44:31;;;;;;;;;;;4.60;85.90;;;;;;5073758;28;19912;-34
2022/12/09 04:46:56;;;;;;;;;;;4.50;85.80;;;;;;5073670;28;19908;-34
2022/12/09 04:49:22;;;;;;;;;;;4.50;85.80;;;;;;5074066;28;19912;-35
2022/12/09 04:51:47;;;;;;;;;;;4.40;85.80;;;;;;5074086;28;19915;-34
2022/12/09 04:54:13;;;;;;;;;;;4.40;85.90;;;;;;5073635;28;20364;-34
2022/12/09 04:56:39;;;;;;;;;;;4.30;85.90;;;;;;5073492;28;19954;-34
2022/12/09 04:59:07;;;;;;;;;;;4.30;86.00;;;;;;5073600;28;20429;-36
2022/12/09 05:01:33;;;;;;;;;;;4.30;86.10;;;;;;5073438;28;19913;-37
2022/12/09 05:03:58;;;;;;;;;;;4.20;86.10;;;;;;5073541;28;20600;-34
2022/12/09 05:06:27;;;;;;;;;;;4.10;86.20;;;;;;5073406;28;19916;-35
2022/12/09 05:08:53;;;;;;;;;;;4.10;86.20;;;;;;5073394;28;20441;-35
2022/12/09 05:11:19;;;;;;;;;;;4.10;86.20;;;;;;5073339;28;19908;-33
2022/12/09 05:13:45;;;;;;;;;;;4.20;86.30;;;;;;5073529;28;19915;-35
2022/12/09 05:16:12;;;;;;;;;;;4.20;86.20;;;;;;5073428;28;19909;-34
2022/12/09 05:18:39;;;;;;;;;;;4.30;86.20;;;;;;5073224;28;19976;-34
2022/12/09 05:21:08;;;;;;;;;;;4.30;86.00;;;;;;5073172;28;19904;-36
2022/12/09 05:23:34;;;;;;;;;;;4.40;85.90;;;;;;5073121;28;19905;-39
2022/12/09 05:26:06;;;;;;;;;;;4.40;85.70;;;;;;5072854;28;19909;-33
2022/12/09 05:28:32;;;;;;;;;;;4.40;85.60;;;;;;5073032;28;19998;-35
2022/12/09 05:31:09;;;;;;;;;;;4.50;85.60;;;;;;5072912;28;19944;-34
2022/12/09 05:33:35;;;;;;;;;;;4.50;85.60;;;;;;5072808;28;19904;-35
2022/12/09 05:36:00;;;;;;;;;;;4.50;85.60;;;;;;5072744;28;20282;-33
2022/12/09 05:38:26;;;;;;;;;;;4.50;85.50;;;;;;5072789;28;19908;-35
2022/12/09 05:40:52;;;;;;;;;;;4.60;85.50;;;;;;5072537;28;19947;-34
2022/12/09 05:43:17;;;;;;;;;;;4.60;85.50;;;;;;5054664;28;19911;-34
2022/12/09 05:45:43;;;;;;;;;;;4.60;85.40;;;;;;5072545;28;19908;-41
2022/12/09 05:48:09;;;;;;;;;;;4.60;85.30;;;;;;5072612;28;19904;-33
2022/12/09 05:50:34;;;;;;;;;;;4.60;85.40;;;;;;5072831;28;20371;-34
2022/12/09 05:53:00;;;;;;;;;;;4.60;85.40;;;;;;5072347;28;19983;-34
2022/12/09 05:55:25;;;;;;;;;;;4.60;85.30;;;;;;5072645;28;19912;-33
2022/12/09 05:57:51;;;;;;;;;;;4.60;85.30;;;;;;5072405;28;19940;-34
2022/12/09 06:00:16;;;;;;;;;;;4.60;85.30;;;;;;5054335;28;19920;-35
2022/12/09 06:02:42;;;;;;;;;;;4.60;85.30;;;;;;5072366;28;19904;-34
2022/12/09 06:05:08;;;;;;;;;;;4.60;85.30;;;;;;5071555;28;20194;-34
2022/12/09 06:07:33;;;;;;;;;;;4.60;85.30;;;;;;5072262;28;19904;-35
2022/12/09 06:09:59;;;;;;;;;;;4.50;85.20;;;;;;5072117;28;19905;-34
2022/12/09 06:12:24;;;;;;;;;;;4.50;85.20;;;;;;5072195;28;20391;-35
2022/12/09 06:14:50;;;;;;;;;;;4.30;85.20;;;;;;5054131;28;19909;-34
2022/12/09 06:17:15;;;;;;;;;;;4.30;85.50;;;;;;5072041;28;19904;-35
2022/12/09 06:19:41;;;;;;;;;;;4.20;85.70;;;;;;5071992;28;19999;-32
2022/12/09 06:22:06;;;;;;;;;;;4.10;85.80;;;;;;5071924;28;19904;-38
2022/12/09 06:24:33;;;;;;;;;;;4.10;85.90;;;;;;5071867;28;19974;-38
2022/12/09 06:26:58;;;;;;;;;;;4.10;85.90;;;;;;5072001;28;19912;-34
2022/12/09 06:29:24;;;;;;;;;;;4.20;85.90;;;;;;5054180;28;20019;-34
2022/12/09 06:31:49;;;;;;;;;;;4.20;85.70;;;;;;5071740;28;19904;-35
2022/12/09 06:34:15;;;;;;;;;;;4.20;85.70;;;;;;5071920;28;20224;-34
2022/12/09 06:36:40;;;;;;;;;;;4.10;85.70;;;;;;5071776;28;19905;-33
2022/12/09 06:39:08;;;;;;;;;;;4.10;85.70;;;;;;5071902;28;20322;-40
2022/12/09 06:41:34;;;;;;;;;;;4.00;85.80;;;;;;5071865;28;20355;-34
2022/12/09 06:43:59;;;;;;;;;;;3.90;85.80;;;;;;5071986;28;19919;-34
2022/12/09 06:46:25;;;;;;;;;;;3.90;85.90;;;;;;5053924;28;20007;-37
2022/12/09 06:48:51;;;;;;;;;;;3.80;85.90;;;;;;5053794;28;20058;-33
2022/12/09 06:51:17;;;;;;;;;;;3.80;86.00;;;;;;5071821;28;19904;-33
2022/12/09 06:53:43;;;;;;;;;;;3.60;86.00;;;;;;5071787;28;19919;-35
2022/12/09 06:56:10;;;;;;;;;;;3.60;86.20;;;;;;5071679;28;19955;-33
2022/12/09 06:58:35;;;;;;;;;;;3.50;86.20;;;;;;5071610;28;20263;-35
2022/12/09 07:01:04;;;;;;;;;;;3.50;86.20;;;;;;5071584;28;19999;-33
2022/12/09 07:03:29;;;;;;;;;;;3.40;86.20;;;;;;5053607;28;19905;-36
2022/12/09 07:05:55;;;;;;;;;;;3.30;86.30;;;;;;5071265;28;19915;-35
2022/12/09 07:08:20;;;;;;;;;;;3.30;86.40;;;;;;5071597;28;19904;-34
2022/12/09 07:10:46;;;;;;;;;;;3.20;86.40;;;;;;5071402;28;19942;-35
2022/12/09 07:13:11;;;;;;;;;;;3.20;86.50;;;;;;5071432;28;19958;-33
2022/12/09 07:15:37;;;;;;;;;;;3.10;86.50;;;;;;5071348;28;19904;-34
2022/12/09 07:18:02;;;;;;;;;;;3.10;86.50;;;;;;5075139;28;19920;-34
2022/12/09 07:20:28;;;;;;;;;;;3.00;86.50;;;;;;5075581;28;19911;-34
2022/12/09 07:22:54;;;;;;;;;;;3.00;86.60;;;;;;5075748;28;19904;-35
2022/12/09 07:25:20;;;;;;;;;;;2.90;86.50;;;;;;5075317;28;19915;-34
2022/12/09 07:27:45;;;;;;;;;;;2.90;86.50;;;;;;5075412;28;19904;-34
2022/12/09 07:30:11;;;;;;;;;;;2.90;86.60;;;;;;5075268;28;19904;-34
2022/12/09 07:32:36;;;;;;;;;;;2.80;86.60;;;;;;5057645;28;19911;-34
2022/12/09 07:35:02;;;;;;;;;;;2.80;86.70;;;;;;5075211;28;19908;-34
2022/12/09 07:37:27;;;;;;;;;;;2.80;86.80;;;;;;5075193;28;20360;-33
2022/12/09 07:39:53;;;;;;;;;;;2.80;86.80;;;;;;5075095;28;20308;-36
2022/12/09 07:42:18;;;;;;;;;;;2.80;86.80;;;;;;5075203;28;19904;-36
2022/12/09 07:44:46;;;;;;;;;;;2.90;86.80;;;;;;5075057;28;19909;-35
2022/12/09 07:47:11;;;;;;;;;;;2.90;86.80;;;;;;5075000;28;20003;-36
2022/12/09 07:49:37;;;;;;;;;;;2.90;86.70;;;;;;5074974;28;19932;-34
2022/12/09 07:52:02;;;;;;;;;;;2.90;86.70;;;;;;5075325;28;19954;-35
2022/12/09 07:54:28;;;;;;;;;;;3.00;86.70;;;;;;5074946;28;20283;-34
2022/12/09 07:56:53;;;;;;;;;;;3.00;86.70;;;;;;5074938;28;20010;-35
2022/12/09 07:59:19;;;;;;;;;;;3.00;86.70;;;;;;5074827;28;20360;-33
2022/12/09 08:01:44;;;;;;;;;;;3.00;86.60;;;;;;5074703;28;19904;-35
2022/12/09 08:04:10;;;;;;;;;;;3.00;86.60;;;;;;5074531;28;19904;-34
2022/12/09 08:06:36;;;;;;;;;;;3.00;86.60;;;;;;5074662;28;19908;-36
2022/12/09 08:09:03;;;;;;;;;;;3.10;86.60;;;;;;5074617;28;19904;-37
2022/12/09 08:11:29;;;;;;;;;;;3.10;86.50;;;;;;5056548;28;19905;-38
2022/12/09 08:13:56;;;;;;;;;;;3.20;86.50;;;;;;5056665;28;19912;-35
2022/12/09 08:16:22;;;;;;;;;;;3.30;86.40;;;;;;5074857;28;19905;-35
2022/12/09 08:18:47;;;;;;;;;;;3.30;86.20;;;;;;5074467;28;19962;-34
2022/12/09 08:21:15;;;;;;;;;;;3.40;86.20;;;;;;5074133;28;20288;-35
2022/12/09 08:23:41;;;;;;;;;;;3.50;86.10;;;;;;5074452;28;19930;-34
2022/12/09 08:26:07;;;;;;;;;;;3.50;86.00;;;;;;5074069;28;19935;-36
2022/12/09 08:28:32;;;;;;;;;;;3.60;85.90;;;;;;5073895;28;19916;-34
2022/12/09 08:31:04;;;;;;;;;;;3.70;85.80;;;;;;5074515;28;19905;-35
2022/12/09 08:33:31;;;;;;;;;;;3.80;85.70;;;;;;5074694;28;19930;-36
2022/12/09 08:35:56;;;;;;;;;;;3.80;85.60;;;;;;5056540;28;19904;-37
2022/12/09 08:38:22;;;;;;;;;;;3.90;85.60;;;;;;5074827;28;19908;-34
2022/12/09 08:40:47;;;;;;;;;;;4.00;85.50;;;;;;5074521;28;19954;-35
2022/12/09 08:43:13;;;;;;;;;;;4.00;85.40;;;;;;5074617;28;19904;-36
2022/12/09 08:45:39;;;;;;;;;;;4.10;85.30;;;;;;5074687;28;19908;-37
2022/12/09 08:48:05;;;;;;;;;;;4.20;85.30;;;;;;5074265;28;19905;-39
2022/12/09 08:50:31;;;;;;;;;;;4.20;85.20;;;;;;5074205;28;20382;-37
2022/12/09 08:52:57;;;;;;;;;;;4.30;85.20;;;;;;5074244;28;19904;-36
2022/12/09 08:55:22;;;;;;;;;;;4.40;85.10;;;;;;5074277;28;19908;-35
2022/12/09 08:57:48;;;;;;;;;;;4.40;85.10;;;;;;5074112;28;19912;-35
2022/12/09 09:00:14;;;;;;;;;;;4.40;85.00;;;;;;5074082;28;19931;-37
2022/12/09 09:02:39;;;;;;;;;;;4.50;85.00;;;;;;5055999;28;19911;-36
2022/12/09 09:05:05;;;;;;;;;;;4.50;85.00;;;;;;5073801;28;19908;-36
2022/12/09 09:07:30;;;;;;;;;;;4.60;84.90;;;;;;5074042;28;19904;-34
2022/12/09 09:09:55;;;;;;;;;;;4.60;84.90;;;;;;5073888;28;19905;-41
2022/12/09 09:12:21;;;;;;;;;;;4.60;84.80;;;;;;5073839;28;19944;-36
2022/12/09 09:14:47;;;;;;;;;;;4.70;84.70;;;;;;5073868;28;19927;-35
2022/12/09 09:17:12;;;;;;;;;;;4.60;84.70;;;;;;5073702;28;19995;-35
2022/12/09 09:19:38;;;;;;;;;;;4.70;84.70;;;;;;5073658;28;20019;-35
2022/12/09 09:22:03;;;;;;;;;;;4.70;84.60;;;;;;5073620;28;19912;-35
2022/12/09 09:24:29;;;;;;;;;;;4.80;84.60;;;;;;5073415;28;20382;-34
2022/12/09 09:26:55;;;;;;;;;;;4.80;84.60;;;;;;5073440;28;19958;-35
2022/12/09 09:29:21;;;;;;;;;;;4.80;84.40;;;;;;5073249;28;20411;-35
2022/12/09 09:31:52;;;;;;;;;;;4.80;84.40;;;;;;5073366;28;19997;-35
2022/12/09 09:34:18;;;;;;;;;;;4.80;84.40;;;;;;5073337;28;19958;-34
2022/12/09 09:36:43;;;;;;;;;;;4.80;84.40;;;;;;5073196;28;20306;-34
2022/12/09 09:39:09;;;;;;;;;;;4.80;84.40;;;;;;5072892;28;19905;-38
2022/12/09 09:41:44;;;;;;;;;;;4.90;84.40;;;;;;5054360;28;19911;-34
2022/12/09 09:44:22;;;;;;;;;;;4.90;84.30;;;;;;5073175;28;19953;-35
2022/12/09 09:46:48;;;;;;;;;;;4.90;84.20;;;;;;5072906;28;19912;-35
2022/12/09 09:49:19;;;;;;;;;;;4.90;84.20;;;;;;5073077;28;19904;-38
2022/12/09 09:51:45;;;;;;;;;;;4.90;84.20;;;;;;5072786;28;19908;-35
2022/12/09 09:54:11;;;;;;;;;;;5.00;84.20;;;;;;5072755;28;19954;-34
2022/12/09 09:56:44;;;;;;;;;;;5.00;84.10;;;;;;5072753;28;19908;-35
2022/12/09 09:59:19;;;;;;;;;;;5.00;84.00;;;;;;5054952;28;19908;-35
2022/12/09 10:02:01;;;;;;;;;;;5.00;83.90;;;;;;5110109;27;19912;-34
2022/12/09 10:04:29;;;;;;;;;;;5.00;83.80;;;;;;5109762;28;19912;-35
2022/12/09 10:06:57;;;;;;;;;;;5.00;83.70;;;;;;5109711;28;19943;-34
2022/12/09 10:09:30;;;;;;;;;;;5.10;83.70;;;;;;5109832;28;20369;-32
2022/12/09 10:11:57;;;;;;;;;;;5.10;83.70;;;;;;5109704;28;20007;-34
2022/12/09 10:14:32;;;;;;;;;;;5.10;83.60;;;;;;5109807;28;20286;-35
2022/12/09 10:17:08;;;;;;;;;;;5.10;83.70;;;;;;5109629;28;19912;-35
2022/12/09 10:19:35;;;;;;;;;;;5.10;83.40;;;;;;5109329;28;20336;-38
2022/12/09 10:22:10;;;;;;;;;;;5.20;83.50;;;;;;5109359;28;19912;-34
2022/12/09 10:24:36;;;;;;;;;;;5.20;83.40;;;;;;5109241;28;20224;-36
2022/12/09 10:27:31;;;;;;;;;;;5.30;83.40;;;;;;5109087;28;19912;-36
2022/12/09 10:30:01;;;;;;;;;;;5.30;83.10;;;;;;5094428;28;19919;-36
2022/12/09 10:32:30;;;;;;;;;;;5.30;82.90;;;;;;5108973;27;20032;-36
2022/12/09 10:34:57;;;;;;;;;;;5.30;82.80;;;;;;5109142;28;19996;-35
2022/12/09 10:37:24;;;;;;;;;;;5.30;82.90;;;;;;5109137;28;19912;-35
2022/12/09 10:39:52;;;;;;;;;;;5.30;82.90;;;;;;5109048;28;19923;-35
2022/12/09 10:45:10;;;;;;;;;;;5.30;82.70;;;;;;5108006;28;20368;-35
2022/12/09 10:47:36;;;;;;;;;;;5.30;82.60;;;;;;5108761;28;19912;-35
2022/12/09 10:50:21;;;;;;;;;;;5.40;82.60;;;;;;5108923;28;19912;-35
2022/12/09 10:52:46;;;;;;;;;;;5.50;82.50;;;;;;5108576;28;19940;-36
2022/12/09 10:55:25;;;;;;;;;;;5.50;82.40;;;;;;5108750;28;19938;-36
2022/12/09 10:58:07;;;;;;;;;;;5.50;82.20;;;;;;5108716;28;20002;-35
2022/12/09 11:00:33;;;;;;;;;;;5.50;82.20;;;;;;5108392;28;19920;-36
2022/12/09 11:02:58;;;;;;;;;;;5.50;82.20;;;;;;5108636;28;19918;-34
2022/12/09 11:05:29;;;;;;;;;;;5.50;82.10;;;;;;5108418;28;20272;-35
2022/12/09 11:07:55;;;;;;;;;;;5.50;82.10;;;;;;5108552;28;19912;-36
2022/12/09 11:10:22;;;;;;;;;;;5.50;82.20;;;;;;5108496;28;19918;-36
2022/12/09 11:12:52;;;;;;;;;;;5.60;82.20;;;;;;5097339;28;19916;-36
2022/12/09 11:15:24;;;;;;;;;;;5.60;82.10;;;;;;5094957;28;19912;-36
2022/12/09 11:17:55;;;;;;;;;;;5.60;82.00;;;;;;5094814;28;19916;-35
2022/12/09 11:20:22;;;;;;;;;;;5.60;81.90;;;;;;5093264;28;20372;-35
2022/12/09 11:23:14;;;;;;;;;;;5.60;81.90;;;;;;5094988;28;19912;-37
2022/12/09 11:25:50;;;;;;;;;;;5.70;81.90;;;;;;5092465;28;19916;-35
2022/12/09 11:28:16;;;;;;;;;;;5.70;81.80;;;;;;5094688;28;19999;-36
2022/12/09 11:30:49;;;;;;;;;;;5.80;81.60;;;;;;5094447;28;19951;-35
2022/12/09 11:33:38;;;;;;;;;;;5.80;81.50;;;;;;5094455;28;19912;-33
2022/12/09 11:36:16;;;;;;;;;;;5.80;81.60;;;;;;5094490;28;19916;-35
2022/12/09 11:38:47;;;;;;;;;;;5.70;81.60;;;;;;5094481;28;19912;-36
2022/12/09 11:42:12;;;;;;;;;;;5.70;81.60;;;;;;5094474;28;19962;-35
2022/12/09 11:44:01;;;;;;;;;;;5.70;81.70;;;;;;5094448;28;20003;-36
2022/12/09 11:46:31;;;;;;;;;;;5.70;81.70;;;;;;5094193;28;19912;-36
2022/12/09 11:49:02;;;;;;;;;;;5.70;81.70;;;;;;5094353;28;19912;-34
2022/12/09 11:51:29;;;;;;;;;;;5.70;81.70;;;;;;5094293;28;19920;-35
2022/12/09 11:53:58;;;;;;;;;;;5.70;81.60;;;;;;5094259;28;19951;-34
2022/12/09 11:56:25;;;;;;;;;;;5.70;81.60;;;;;;5094226;28;19939;-34
2022/12/09 11:59:11;;;;;;;;;;;5.60;81.50;;;;;;5094002;28;19977;-34
2022/12/09 12:01:47;;;;;;;;;;;5.60;81.60;;;;;;5093653;28;19967;-35
2022/12/09 12:04:14;;;;;;;;;;;5.60;81.60;;;;;;5093665;28;19962;-34
2022/12/09 12:06:47;;;;;;;;;;;5.60;81.60;;;;;;5093728;28;19912;-38
2022/12/09 12:09:19;;;;;;;;;;;5.60;81.60;;;;;;5093778;28;19912;-34
2022/12/09 12:12:08;;;;;;;;;;;5.50;81.60;;;;;;5093639;28;19912;-36
2022/12/09 12:14:35;;;;;;;;;;;5.60;81.60;;;;;;5093484;28;19920;-35
2022/12/09 12:17:17;;;;;;;;;;;5.60;81.60;;;;;;5093734;28;19971;-36
2022/12/09 12:19:44;;;;;;;;;;;5.60;81.50;;;;;;5093617;28;19965;-32
2022/12/09 12:22:28;;;;;;;;;;;5.70;81.30;;;;;;5093613;28;19970;-34
2022/12/09 12:24:56;;;;;;;;;;;5.80;81.20;;;;;;5092502;28;19923;-34
2022/12/09 12:27:27;;;;;;;;;;;5.80;81.00;;;;;;5093528;28;19919;-32
2022/12/09 12:30:02;;;;;;;;;;;5.90;80.90;;;;;;5093509;28;19912;-34
2022/12/09 12:32:28;;;;;;;;;;;5.90;80.70;;;;;;5093358;28;19954;-29
2022/12/09 12:35:12;;;;;;;;;;;6.00;80.60;;;;;;5093298;28;19916;-30
2022/12/09 12:37:58;;;;;;;;;;;6.00;80.50;;;;;;5093257;28;19916;-36
2022/12/09 12:40:42;;;;;;;;;;;6.00;80.20;;;;;;5085645;28;19968;-28
2022/12/09 12:46:17;;;;;;;;;;;6.00;80.30;;;;;;5093310;28;20429;-28
2022/12/09 12:49:01;;;;;;;;;;;5.90;80.20;;;;;;5092866;28;20286;-33
2022/12/09 12:51:27;;;;;;;;;;;5.90;80.30;;;;;;5092996;28;20366;-35
2022/12/09 12:54:14;;;;;;;;;;;5.90;80.40;;;;;;5093031;28;19912;-27
2022/12/09 12:56:50;;;;;;;;;;;5.80;80.40;;;;;;5092854;28;20123;-27
2022/12/09 12:59:18;;;;;;;;;;;5.80;80.30;;;;;;5091602;28;20393;-29
2022/12/09 13:01:44;;;;;;;;;;;5.90;80.20;;;;;;5091220;28;20413;-27
2022/12/09 13:04:16;;;;;;;;;;;5.90;80.20;;;;;;5092887;28;19912;-35
2022/12/09 13:06:47;;;;;;;;;;;5.90;80.20;;;;;;5091239;28;19919;-31
2022/12/09 13:09:22;;;;;;;;;;;5.90;79.90;;;;;;5092669;28;19963;-30
2022/12/09 13:11:51;;;;;;;;;;;5.80;79.90;;;;;;5092586;28;19919;-33
2022/12/09 13:14:20;;;;;;;;;;;5.80;80.00;;;;;;5092414;28;19912;-26
2022/12/09 13:16:46;;;;;;;;;;;5.70;79.80;;;;;;5092925;28;20278;-30
2022/12/09 13:19:17;;;;;;;;;;;5.70;79.80;;;;;;5092510;28;20140;-31
2022/12/09 13:21:43;;;;;;;;;;;5.60;79.80;;;;;;5092289;28;20304;-27
2022/12/09 13:24:39;;;;;;;;;;;5.60;79.80;;;;;;5092405;28;19912;-29
2022/12/09 13:27:09;;;;;;;;;;;5.60;79.80;;;;;;5054618;28;19913;-31
2022/12/09 13:29:38;;;;;;;;;;;5.60;79.80;;;;;;5092347;28;19913;-28
2022/12/09 13:32:18;;;;;;;;;;;5.60;79.80;;;;;;5092254;28;19923;-32
2022/12/09 13:34:53;;;;;;;;;;;5.60;79.80;;;;;;5091878;28;19912;-30
2022/12/09 13:37:36;;;;;;;;;;;5.60;79.60;;;;;;5092168;28;19976;-28
2022/12/09 13:40:22;;;;;;;;;;;5.60;79.60;;;;;;5092236;28;19916;-31
2022/12/09 13:42:57;;;;;;;;;;;5.60;79.60;;;;;;5092067;28;19912;-27
2022/12/09 13:45:25;;;;;;;;;;;5.60;79.60;;;;;;5092358;28;19961;-33
2022/12/09 13:47:52;;;;;;;;;;;5.60;79.60;;;;;;5092116;28;20295;-30
2022/12/09 13:50:26;;;;;;;;;;;5.60;79.60;;;;;;5092061;28;20007;-32
2022/12/09 13:53:12;;;;;;;;;;;5.60;79.60;;;;;;5090852;28;19916;-32
2022/12/09 13:55:46;;;;;;;;;;;5.60;79.50;;;;;;5084369;28;19912;-27
2022/12/09 13:58:21;;;;;;;;;;;5.60;79.50;;;;;;5091971;28;20011;-31
2022/12/09 14:00:57;;;;;;;;;;;5.60;79.50;;;;;;5091807;28;19942;-32
2022/12/09 14:03:28;;;;;;;;;;;5.60;79.40;;;;;;5091947;28;19912;-31
2022/12/09 14:05:55;;;;;;;;;;;5.50;79.40;;;;;;5091960;28;19919;-30
2022/12/09 14:08:22;;;;;;;;;;;5.50;79.50;;;;;;5091954;28;20013;-27
2022/12/09 14:10:50;;;;;;;;;;;5.50;79.50;;;;;;5091843;28;19937;-34
2022/12/09 14:13:36;;;;;;;;;;;5.50;79.40;;;;;;5091891;28;19912;-32
2022/12/09 14:16:17;;;;;;;;;;;5.50;79.40;;;;;;5091482;28;19919;-35
2022/12/09 14:18:43;;;;;;;;;;;5.40;79.20;;;;;;5090486;28;20536;-34
2022/12/09 14:21:17;;;;;;;;;;;5.40;79.30;;;;;;5091689;28;19965;-30
2022/12/09 14:24:03;;;;;;;;;;;5.30;79.20;;;;;;5091802;28;20253;-34
2022/12/09 14:26:41;;;;;;;;;;;5.30;79.30;;;;;;5083821;28;19935;-33
2022/12/09 14:29:06;;;;;;;;;;;5.30;79.50;;;;;;5091659;28;19920;-30
2022/12/09 14:31:42;;;;;;;;;;;5.30;79.40;;;;;;5091587;28;20291;-29
2022/12/09 14:34:20;;;;;;;;;;;5.40;79.50;;;;;;5091705;28;20301;-32
2022/12/09 14:36:51;;;;;;;;;;;5.30;79.40;;;;;;5091765;28;19966;-30
2022/12/09 14:39:23;;;;;;;;;;;5.30;79.50;;;;;;5091619;28;19919;-33
2022/12/09 14:41:52;;;;;;;;;;;5.30;79.50;;;;;;5091561;28;19916;-30
2022/12/09 14:44:21;;;;;;;;;;;5.40;79.50;;;;;;5090437;28;19919;-33
2022/12/09 14:46:48;;;;;;;;;;;5.40;79.50;;;;;;5091859;28;19919;-32